Time;durP1;ratioP1;P1;durP2;ratioP2;P2;SDS_P1;SDS_P2;PMS_P1;PMS_P2;Temp;Humidity;BMP_temperature;BMP_pressure;BME280_temperature;BME280_humidity;BME280_pressure;Samples;Min_cycle;Max_cycle;Signal;HPM_P1;HPM_P2
2023/05/08 00:01:15;;;;;;;6.07;3.03;;;;;;;;;;5076865;28;20497;-69
2023/05/08 00:03:45;;;;;;;4.60;3.50;;;;;;;;;;5076611;28;20460;-68
2023/05/08 00:06:15;;;;;;;4.20;3.30;;;;;;;;;;5077543;28;20461;-69
2023/05/08 00:08:43;;;;;;;4.53;2.73;;;;;;;;;;5076821;28;20461;-68
2023/05/08 00:11:12;;;;;;;3.33;2.43;;;;;;;;;;5077190;28;20537;-68
2023/05/08 00:13:42;;;;;;;3.43;2.50;;;;;;;;;;5078156;28;20593;-69
2023/05/08 00:16:18;;;;;;;4.30;3.20;;;;;;;;;;5097873;28;20448;-70
2023/05/08 00:18:47;;;;;;;4.70;3.20;;;;;;;;;;5097645;28;20448;-69
2023/05/08 00:21:17;;;;;;;4.07;2.93;;;;;;;;;;5097247;28;20567;-69
2023/05/08 00:23:45;;;;;;;3.50;2.60;;;;;;;;;;5098664;28;20463;-69
2023/05/08 00:26:22;;;;;;;2.90;2.40;;;;;;;;;;5100173;28;20717;-69
2023/05/08 00:28:52;;;;;;;4.00;3.00;;;;;;;;;;5098199;28;20447;-68
2023/05/08 00:31:21;;;;;;;4.03;3.30;;;;;;;;;;5099016;28;20456;-67
2023/05/08 00:33:49;;;;;;;3.47;2.60;;;;;;;;;;5099672;28;20444;-68
2023/05/08 00:36:19;;;;;;;5.00;3.47;;;;;;;;;;5099143;28;20883;-70
2023/05/08 00:38:48;;;;;;;5.53;3.47;;;;;;;;;;5099293;28;20513;-68
2023/05/08 00:41:17;;;;;;;4.10;3.20;;;;;;;;;;5099298;28;20582;-69
2023/05/08 00:43:46;;;;;;;3.53;2.50;;;;;;;;;;5100265;28;20448;-69
2023/05/08 00:46:16;;;;;;;3.30;3.00;;;;;;;;;;5097588;28;20805;-69
2023/05/08 00:48:45;;;;;;;5.40;2.67;;;;;;;;;;5096905;28;20486;-68
2023/05/08 00:51:14;;;;;;;4.50;3.47;;;;;;;;;;5098381;28;20456;-68
2023/05/08 00:53:44;;;;;;;3.80;2.93;;;;;;;;;;5098371;28;20454;-69
2023/05/08 00:56:15;;;;;;;4.93;3.60;;;;;;;;;;5097282;28;20488;-69
2023/05/08 00:58:45;;;;;;;4.90;3.10;;;;;;;;;;5096919;28;20452;-68
2023/05/08 01:01:13;;;;;;;3.57;2.80;;;;;;;;;;5096857;28;20479;-69
2023/05/08 01:03:46;;;;;;;4.20;3.37;;;;;;;;;;5097171;28;20968;-68
2023/05/08 01:06:15;;;;;;;6.60;3.40;;;;;;;;;;5098033;28;20460;-69
2023/05/08 01:08:45;;;;;;;3.47;2.80;;;;;;;;;;5097924;28;20448;-68
2023/05/08 01:11:18;;;;;;;2.90;2.60;;;;;;;;;;5098029;28;20790;-69
2023/05/08 01:13:52;;;;;;;3.87;3.00;;;;;;;;;;5099464;28;20565;-69
2023/05/08 01:16:35;;;;;;;5.03;3.17;;;;;;;;;;5097067;28;20451;-69
2023/05/08 01:19:20;;;;;;;4.10;2.97;;;;;;;;;;5078858;28;20437;-70
2023/05/08 01:21:53;;;;;;;4.20;3.20;;;;;;;;;;5079122;28;20493;-69
2023/05/08 01:24:36;;;;;;;4.80;3.47;;;;;;;;;;5079878;28;20528;-70
2023/05/08 01:27:32;;;;;;;8.80;3.63;;;;;;;;;;5061981;28;20499;-68
2023/05/08 01:30:20;;;;;;;4.03;3.53;;;;;;;;;;5077316;28;20461;-68
2023/05/08 01:33:01;;;;;;;4.13;3.10;;;;;;;;;;5077981;28;20451;-69
2023/05/08 01:35:31;;;;;;;5.50;3.10;;;;;;;;;;5077681;28;20606;-68
2023/05/08 01:38:04;;;;;;;4.20;3.10;;;;;;;;;;5077056;28;20449;-68
2023/05/08 01:40:35;;;;;;;4.43;3.20;;;;;;;;;;5097466;28;20448;-68
2023/05/08 01:43:12;;;;;;;4.03;3.40;;;;;;;;;;5098665;28;20563;-69
2023/05/08 01:45:41;;;;;;;4.23;3.57;;;;;;;;;;5098119;28;20470;-68
2023/05/08 01:48:17;;;;;;;5.53;3.00;;;;;;;;;;5098560;28;20452;-69
2023/05/08 01:50:48;;;;;;;3.70;3.00;;;;;;;;;;5098339;28;20466;-69
2023/05/08 01:53:23;;;;;;;4.83;3.80;;;;;;;;;;5099003;28;20451;-69
2023/05/08 01:55:52;;;;;;;4.27;3.43;;;;;;;;;;5099736;28;20529;-70
2023/05/08 01:58:21;;;;;;;3.53;3.10;;;;;;;;;;5098726;28;20444;-68
2023/05/08 02:00:51;;;;;;;4.07;3.63;;;;;;;;;;5100769;28;20475;-68
2023/05/08 02:03:22;;;;;;;5.50;3.50;;;;;;;;;;5102312;28;21154;-68
2023/05/08 02:05:50;;;;;;;4.80;3.37;;;;;;;;;;5103413;28;20546;-68
2023/05/08 02:08:20;;;;;;;6.80;3.20;;;;;;;;;;5102980;28;20460;-68
2023/05/08 02:10:49;;;;;;;4.63;3.50;;;;;;;;;;5103133;28;20447;-67
2023/05/08 02:13:22;;;;;;;5.50;3.70;;;;;;;;;;5103665;28;20474;-68
2023/05/08 02:15:50;;;;;;;6.13;3.33;;;;;;;;;;5101917;28;20460;-67
2023/05/08 02:18:26;;;;;;;5.43;3.40;;;;;;;;;;5102352;28;20459;-68
2023/05/08 02:20:55;;;;;;;4.57;3.60;;;;;;;;;;5101927;28;20452;-69
2023/05/08 02:23:26;;;;;;;5.33;3.43;;;;;;;;;;5102451;28;20479;-67
2023/05/08 02:25:57;;;;;;;4.47;4.07;;;;;;;;;;5101770;28;20534;-69
2023/05/08 02:28:26;;;;;;;4.03;3.27;;;;;;;;;;5101110;28;20486;-70
2023/05/08 02:30:54;;;;;;;4.53;3.33;;;;;;;;;;5102006;28;20455;-68
2023/05/08 02:33:25;;;;;;;5.80;3.10;;;;;;;;;;5101718;28;20483;-69
2023/05/08 02:35:55;;;;;;;4.30;3.40;;;;;;;;;;5102597;28;20482;-69
2023/05/08 02:38:25;;;;;;;3.80;3.30;;;;;;;;;;5102546;28;20460;-69
2023/05/08 02:40:57;;;;;;;4.90;3.43;;;;;;;;;;5101685;28;20888;-69
2023/05/08 02:43:25;;;;;;;4.33;3.60;;;;;;;;;;5102373;28;20488;-68
2023/05/08 02:46:00;;;;;;;5.27;3.80;;;;;;;;;;5100969;28;20452;-68
2023/05/08 02:48:40;;;;;;;7.70;4.07;;;;;;;;;;5100964;28;20455;-69
2023/05/08 02:51:15;;;;;;;4.20;3.40;;;;;;;;;;5101003;28;20685;-68
2023/05/08 02:53:47;;;;;;;4.60;3.63;;;;;;;;;;5099838;28;20482;-70
2023/05/08 02:56:20;;;;;;;3.97;3.37;;;;;;;;;;5081961;28;20448;-69
2023/05/08 02:58:54;;;;;;;4.33;3.90;;;;;;;;;;5099461;28;20440;-69
2023/05/08 03:01:25;;;;;;;6.20;4.20;;;;;;;;;;5098874;28;20455;-69
2023/05/08 03:04:03;;;;;;;4.77;3.23;;;;;;;;;;5098827;28;20440;-69
2023/05/08 03:06:36;;;;;;;4.40;3.50;;;;;;;;;;5097856;28;20880;-68
2023/05/08 03:09:07;;;;;;;4.07;3.20;;;;;;;;;;5100126;28;20456;-69
2023/05/08 03:11:49;;;;;;;4.80;4.00;;;;;;;;;;5098308;28;20475;-68
2023/05/08 03:14:24;;;;;;;7.83;3.30;;;;;;;;;;5099774;28;20494;-68
2023/05/08 03:16:58;;;;;;;5.10;3.63;;;;;;;;;;5098335;28;20456;-69
2023/05/08 03:19:36;;;;;;;3.80;3.17;;;;;;;;;;5098125;28;20448;-68
2023/05/08 03:22:05;;;;;;;4.37;3.50;;;;;;;;;;5099305;28;20759;-68
2023/05/08 03:24:35;;;;;;;4.57;3.53;;;;;;;;;;5099575;28;20448;-68
2023/05/08 03:27:04;;;;;;;4.30;3.27;;;;;;;;;;5091718;28;20457;-68
2023/05/08 03:29:33;;;;;;;6.57;3.70;;;;;;;;;;5080557;28;20453;-70
2023/05/08 03:32:04;;;;;;;4.80;3.90;;;;;;;;;;5079216;28;20710;-68
2023/05/08 03:34:35;;;;;;;4.43;3.47;;;;;;;;;;5095015;28;20470;-70
2023/05/08 03:37:05;;;;;;;5.30;3.50;;;;;;;;;;5100772;28;20563;-67
2023/05/08 03:39:34;;;;;;;5.07;4.10;;;;;;;;;;5099500;28;20463;-69
2023/05/08 03:42:03;;;;;;;5.13;3.87;;;;;;;;;;5101837;28;20510;-68
2023/05/08 03:44:32;;;;;;;4.73;3.50;;;;;;;;;;5082030;28;20445;-69
2023/05/08 03:47:00;;;;;;;7.60;4.27;;;;;;;;;;5081122;28;20460;-69
2023/05/08 03:49:30;;;;;;;6.90;4.57;;;;;;;;;;5077067;28;20433;-68
2023/05/08 03:52:04;;;;;;;8.30;3.90;;;;;;;;;;5098172;28;20456;-69
2023/05/08 03:54:32;;;;;;;5.13;4.00;;;;;;;;;;5098664;28;20735;-69
2023/05/08 03:57:00;;;;;;;5.60;3.47;;;;;;;;;;5099826;28;20513;-70
2023/05/08 03:59:32;;;;;;;6.43;3.73;;;;;;;;;;5100897;28;20448;-69
2023/05/08 04:02:09;;;;;;;4.60;3.97;;;;;;;;;;5097763;28;20480;-68
2023/05/08 04:04:40;;;;;;;4.83;3.67;;;;;;;;;;5099081;28;20461;-70
2023/05/08 04:07:12;;;;;;;4.70;3.77;;;;;;;;;;5096429;28;20456;-68
2023/05/08 04:09:44;;;;;;;4.90;3.63;;;;;;;;;;5097250;28;20505;-69
2023/05/08 04:12:25;;;;;;;4.83;3.67;;;;;;;;;;5095402;28;20880;-69
2023/05/08 04:14:55;;;;;;;4.93;4.00;;;;;;;;;;5087010;28;20487;-69
2023/05/08 04:17:29;;;;;;;5.80;3.67;;;;;;;;;;5074451;28;20498;-68
2023/05/08 04:22:47;;;;;;;4.97;3.73;;;;;;;;;;5088945;28;20484;-69
2023/05/08 04:25:16;;;;;;;7.30;5.00;;;;;;;;;;5075985;28;20759;-69
2023/05/08 04:27:46;;;;;;;4.60;4.07;;;;;;;;;;5076083;28;20514;-68
2023/05/08 04:30:19;;;;;;;4.70;3.70;;;;;;;;;;5086122;28;20468;-69
2023/05/08 04:32:48;;;;;;;5.07;4.40;;;;;;;;;;5097760;28;20809;-69
2023/05/08 04:35:16;;;;;;;4.90;3.73;;;;;;;;;;5105202;28;20448;-69
2023/05/08 04:37:47;;;;;;;5.67;4.20;;;;;;;;;;5108330;28;20554;-69
2023/05/08 04:40:15;;;;;;;7.47;4.17;;;;;;;;;;5095151;28;20449;-69
2023/05/08 04:42:46;;;;;;;5.53;4.17;;;;;;;;;;5097692;28;20482;-68
2023/05/08 04:45:15;;;;;;;5.37;4.20;;;;;;;;;;5095847;28;20479;-70
2023/05/08 04:47:44;;;;;;;6.17;4.33;;;;;;;;;;5097479;28;20456;-69
2023/05/08 04:50:13;;;;;;;4.90;3.93;;;;;;;;;;5095882;28;20836;-70
2023/05/08 04:52:46;;;;;;;4.97;3.40;;;;;;;;;;5094876;28;20448;-70
2023/05/08 04:55:29;;;;;;;5.30;4.40;;;;;;;;;;5093596;28;20903;-70
2023/05/08 04:57:58;;;;;;;71.43;14.33;;;;;;;;;;5093140;28;20483;-68
2023/05/08 05:00:28;;;;;;;13.07;5.40;;;;;;;;;;5092707;28;21007;-70
2023/05/08 05:02:56;;;;;;;4.73;3.97;;;;;;;;;;5092663;28;20564;-69
2023/05/08 05:05:24;;;;;;;5.60;3.77;;;;;;;;;;5092483;28;20508;-69
2023/05/08 05:07:55;;;;;;;4.20;3.53;;;;;;;;;;5091063;28;20459;-68
2023/05/08 05:10:30;;;;;;;4.27;3.33;;;;;;;;;;5091894;28;20451;-69
2023/05/08 05:13:07;;;;;;;5.30;4.03;;;;;;;;;;5092459;28;20451;-70
2023/05/08 05:15:37;;;;;;;5.20;3.80;;;;;;;;;;5082891;28;20891;-70
2023/05/08 05:18:05;;;;;;;5.70;4.17;;;;;;;;;;5071168;28;20457;-70
2023/05/08 05:20:34;;;;;;;5.30;4.53;;;;;;;;;;5071009;28;20475;-71
2023/05/08 05:23:06;;;;;;;5.87;3.60;;;;;;;;;;5075511;28;20487;-70
2023/05/08 05:25:38;;;;;;;4.43;3.10;;;;;;;;;;5073389;28;20464;-68
2023/05/08 05:28:07;;;;;;;5.60;4.20;;;;;;;;;;5072263;28;20708;-68
2023/05/08 05:30:35;;;;;;;5.73;3.90;;;;;;;;;;5069544;28;20510;-68
2023/05/08 05:33:08;;;;;;;4.73;3.80;;;;;;;;;;5068948;28;20776;-69
2023/05/08 05:35:37;;;;;;;5.83;4.13;;;;;;;;;;5073872;28;20538;-69
2023/05/08 05:38:08;;;;;;;5.73;4.27;;;;;;;;;;5073088;28;20540;-69
2023/05/08 05:40:38;;;;;;;5.87;4.63;;;;;;;;;;5071723;28;20448;-69
2023/05/08 05:43:07;;;;;;;6.50;5.00;;;;;;;;;;5069703;28;20484;-69
2023/05/08 05:45:36;;;;;;;6.63;4.47;;;;;;;;;;5067912;28;20445;-70
2023/05/08 05:48:06;;;;;;;5.57;4.23;;;;;;;;;;5051454;28;20451;-69
2023/05/08 05:50:38;;;;;;;6.80;5.17;;;;;;;;;;5070775;28;20456;-69
2023/05/08 05:53:10;;;;;;;5.73;5.07;;;;;;;;;;5070393;28;20461;-69
2023/05/08 05:55:40;;;;;;;6.60;4.53;;;;;;;;;;5070609;28;20460;-69
2023/05/08 05:58:15;;;;;;;4.70;4.13;;;;;;;;;;5085301;28;20456;-70
2023/05/08 06:00:50;;;;;;;5.60;4.07;;;;;;;;;;5091831;28;20447;-69
2023/05/08 06:03:19;;;;;;;7.60;4.93;;;;;;;;;;5096241;28;20630;-70
2023/05/08 06:05:51;;;;;;;7.20;4.77;;;;;;;;;;5093226;28;20546;-70
2023/05/08 06:08:27;;;;;;;5.93;3.93;;;;;;;;;;5083531;28;20758;-70
2023/05/08 06:10:57;;;;;;;7.37;4.73;;;;;;;;;;5074746;28;20531;-69
2023/05/08 06:13:27;;;;;;;9.13;4.93;;;;;;;;;;5086451;28;20474;-69
2023/05/08 06:15:57;;;;;;;6.10;4.70;;;;;;;;;;5095544;28;20448;-69
2023/05/08 06:18:26;;;;;;;9.10;4.93;;;;;;;;;;5092929;28;20452;-69
2023/05/08 06:21:04;;;;;;;6.43;5.20;;;;;;;;;;5079037;28;20453;-69
2023/05/08 06:23:34;;;;;;;6.10;5.00;;;;;;;;;;5083994;28;21052;-69
2023/05/08 06:26:06;;;;;;;7.10;5.50;;;;;;;;;;5095660;28;20452;-68
2023/05/08 06:31:22;;;;;;;8.40;5.77;;;;;;;;;;5088000;28;20452;-69
2023/05/08 06:33:50;;;;;;;11.57;5.70;;;;;;;;;;5093290;28;20468;-68
2023/05/08 06:36:22;;;;;;;7.27;5.23;;;;;;;;;;5084714;28;20686;-68
2023/05/08 06:38:51;;;;;;;7.40;5.33;;;;;;;;;;5071760;28;21063;-69
2023/05/08 06:41:22;;;;;;;5.60;4.30;;;;;;;;;;5075186;28;20879;-70
2023/05/08 06:43:53;;;;;;;8.47;5.93;;;;;;;;;;5075332;28;20495;-70
2023/05/08 06:46:24;;;;;;;6.33;5.17;;;;;;;;;;5076634;28;20434;-69
2023/05/08 06:48:53;;;;;;;4.80;4.37;;;;;;;;;;5076043;28;20461;-69
2023/05/08 06:51:28;;;;;;;6.13;5.53;;;;;;;;;;5076538;28;20455;-68
2023/05/08 06:53:57;;;;;;;8.20;5.93;;;;;;;;;;5076046;28;20897;-70
2023/05/08 06:56:28;;;;;;;7.63;5.50;;;;;;;;;;5073041;28;20457;-68
2023/05/08 06:58:58;;;;;;;5.20;4.50;;;;;;;;;;5075420;28;20456;-68
2023/05/08 07:01:28;;;;;;;9.90;6.30;;;;;;;;;;5094769;28;20436;-69
2023/05/08 07:04:00;;;;;;;7.60;5.20;;;;;;;;;;5093521;28;20951;-69
2023/05/08 07:06:30;;;;;;;7.13;5.50;;;;;;;;;;5093440;28;20520;-68
2023/05/08 07:08:59;;;;;;;7.93;5.70;;;;;;;;;;5092277;28;20720;-69
2023/05/08 07:11:31;;;;;;;8.93;6.03;;;;;;;;;;5092077;28;20454;-68
2023/05/08 07:14:07;;;;;;;7.87;5.53;;;;;;;;;;5091776;28;20459;-69
2023/05/08 07:16:38;;;;;;;6.43;5.07;;;;;;;;;;5088901;28;21130;-69
2023/05/08 07:19:13;;;;;;;8.93;6.13;;;;;;;;;;5092869;28;20441;-70
2023/05/08 07:21:48;;;;;;;7.77;6.70;;;;;;;;;;5094051;28;20733;-69
2023/05/08 07:24:21;;;;;;;8.23;6.10;;;;;;;;;;5093828;28;20588;-68
2023/05/08 07:26:58;;;;;;;8.60;6.20;;;;;;;;;;5095377;28;20458;-70
2023/05/08 07:29:27;;;;;;;6.63;5.47;;;;;;;;;;5094007;28;20459;-69
2023/05/08 07:35:07;;;;;;;8.10;6.33;;;;;;;;;;5069060;28;20449;-70
2023/05/08 07:37:35;;;;;;;7.77;6.10;;;;;;;;;;5071127;28;20503;-69
2023/05/08 07:40:12;;;;;;;6.50;5.40;;;;;;;;;;5086273;28;20513;-69
2023/05/08 07:42:54;;;;;;;8.17;6.23;;;;;;;;;;5089445;28;20436;-69
2023/05/08 07:45:24;;;;;;;8.80;4.90;;;;;;;;;;5090787;28;21252;-69
2023/05/08 07:47:54;;;;;;;8.97;6.17;;;;;;;;;;5093750;28;20475;-69
2023/05/08 07:50:28;;;;;;;8.13;5.83;;;;;;;;;;5091693;28;20455;-69
2023/05/08 07:53:03;;;;;;;8.60;6.23;;;;;;;;;;5093254;28;20451;-68
2023/05/08 07:55:32;;;;;;;7.10;5.33;;;;;;;;;;5093291;28;20459;-69
2023/05/08 07:58:03;;;;;;;7.23;5.47;;;;;;;;;;5095532;28;20444;-69
2023/05/08 08:00:41;;;;;;;8.00;6.23;;;;;;;;;;5085428;28;20524;-69
2023/05/08 08:03:10;;;;;;;7.50;6.00;;;;;;;;;;5093520;28;20494;-69
2023/05/08 08:05:39;;;;;;;7.77;5.73;;;;;;;;;;5083812;28;20456;-69
2023/05/08 08:08:09;;;;;;;6.83;6.10;;;;;;;;;;5091941;28;20452;-70
2023/05/08 08:11:06;;;;;;;7.33;6.57;;;;;;;;;;5088213;28;20448;-70
2023/05/08 08:13:36;;;;;;;6.13;5.27;;;;;;;;;;5080452;28;20456;-70
2023/05/08 08:16:07;;;;;;;8.53;6.57;;;;;;;;;;5090769;28;20487;-70
2023/05/08 08:18:38;;;;;;;8.70;6.20;;;;;;;;;;5089517;28;20491;-69
2023/05/08 08:21:13;;;;;;;9.30;6.60;;;;;;;;;;5090348;28;20667;-70
2023/05/08 08:26:28;;;;;;;6.67;4.70;;;;;;;;;;5094076;28;20763;-69
2023/05/08 08:28:59;;;;;;;6.43;5.30;;;;;;;;;;5093162;28;20503;-69
2023/05/08 08:31:28;;;;;;;6.63;5.93;;;;;;;;;;5076980;28;20630;-69
2023/05/08 08:33:59;;;;;;;9.23;6.80;;;;;;;;;;5072549;28;20540;-70
2023/05/08 08:36:35;;;;;;;6.90;5.30;;;;;;;;;;5081811;28;20468;-70
2023/05/08 08:39:13;;;;;;;8.00;5.77;;;;;;;;;;5093072;28;20444;-70
2023/05/08 08:41:42;;;;;;;9.53;5.87;;;;;;;;;;5090888;28;20513;-69
2023/05/08 08:44:12;;;;;;;7.40;5.33;;;;;;;;;;5092498;28;20942;-70
2023/05/08 08:46:43;;;;;;;9.00;6.60;;;;;;;;;;5092314;28;20455;-69
2023/05/08 08:49:20;;;;;;;7.90;5.13;;;;;;;;;;5092648;28;20914;-71
2023/05/08 08:52:05;;;;;;;7.97;5.47;;;;;;;;;;5090246;28;20455;-70
2023/05/08 08:57:18;;;;;;;8.07;5.33;;;;;;;;;;5100507;28;20759;-69
2023/05/08 08:59:52;;;;;;;8.10;4.93;;;;;;;;;;5092133;28;20468;-69
2023/05/08 09:02:28;;;;;;;7.80;5.83;;;;;;;;;;5095107;28;21024;-70
2023/05/08 09:05:02;;;;;;;5.97;4.90;;;;;;;;;;5096185;28;20902;-68
2023/05/08 09:07:31;;;;;;;6.67;5.50;;;;;;;;;;5093755;28;20802;-70
2023/05/08 09:12:46;;;;;;;6.63;5.10;;;;;;;;;;5086664;28;20490;-70
2023/05/08 09:15:16;;;;;;;6.57;5.17;;;;;;;;;;5089017;28;20543;-68
2023/05/08 09:17:47;;;;;;;5.93;5.10;;;;;;;;;;5078973;28;20456;-70
2023/05/08 09:20:18;;;;;;;6.57;5.40;;;;;;;;;;5092911;28;20851;-70
2023/05/08 09:22:55;;;;;;;9.47;5.13;;;;;;;;;;5087555;28;20469;-70
2023/05/08 09:25:43;;;;;;;4.63;4.03;;;;;;;;;;5092682;28;20522;-70
2023/05/08 09:28:20;;;;;;;5.77;4.43;;;;;;;;;;5093579;28;20460;-72
2023/05/08 09:31:11;;;;;;;5.83;5.23;;;;;;;;;;5092371;28;20444;-70
2023/05/08 09:33:46;;;;;;;6.97;4.90;;;;;;;;;;5096218;28;20543;-70
2023/05/08 09:36:33;;;;;;;6.07;4.40;;;;;;;;;;5082991;28;20465;-70
2023/05/08 09:39:05;;;;;;;5.10;4.60;;;;;;;;;;5085012;28;20456;-69
2023/05/08 09:41:37;;;;;;;6.97;4.07;;;;;;;;;;5076228;28;20457;-70
2023/05/08 09:44:11;;;;;;;7.80;5.60;;;;;;;;;;5091009;28;20490;-71
2023/05/08 09:47:01;;;;;;;5.13;4.40;;;;;;;;;;5092955;28;20468;-70
2023/05/08 09:49:30;;;;;;;6.07;4.17;;;;;;;;;;5093199;28;20467;-70
2023/05/08 09:52:01;;;;;;;6.30;5.27;;;;;;;;;;5091167;28;20461;-70
2023/05/08 09:54:46;;;;;;;5.80;3.80;;;;;;;;;;5093268;28;20459;-71
2023/05/08 10:00:11;;;;;;;7.93;4.67;;;;;;;;;;5087039;28;20458;-71
2023/05/08 10:03:05;;;;;;;5.80;3.93;;;;;;;;;;5084797;28;20475;-69
2023/05/08 10:05:54;;;;;;;6.20;4.53;;;;;;;;;;5090509;28;20499;-71
2023/05/08 10:08:33;;;;;;;5.67;5.10;;;;;;;;;;5088258;28;20463;-70
2023/05/08 10:11:16;;;;;;;5.53;4.67;;;;;;;;;;5059779;28;20468;-70
2023/05/08 10:13:45;;;;;;;4.77;3.83;;;;;;;;;;5090757;28;20483;-70
2023/05/08 10:16:25;;;;;;;7.07;4.03;;;;;;;;;;5073961;28;20471;-70
2023/05/08 10:19:00;;;;;;;6.53;3.50;;;;;;;;;;5090172;28;20545;-69
2023/05/08 10:21:49;;;;;;;6.53;3.70;;;;;;;;;;5096091;28;20455;-71
2023/05/08 10:24:32;;;;;;;6.43;3.70;;;;;;;;;;5095821;28;20564;-70
2023/05/08 10:27:07;;;;;;;6.27;4.00;;;;;;;;;;5086138;28;20464;-71
2023/05/08 10:29:52;;;;;;;5.60;3.70;;;;;;;;;;5083689;28;20456;-71
2023/05/08 10:32:30;;;;;;;9.33;4.63;;;;;;;;;;5092668;28;20464;-70
2023/05/08 10:35:13;;;;;;;9.93;4.80;;;;;;;;;;5084293;28;20514;-70
2023/05/08 10:37:46;;;;;;;5.80;3.77;;;;;;;;;;5086892;28;20478;-70
2023/05/08 10:40:17;;;;;;;8.80;3.77;;;;;;;;;;5087150;28;21223;-69
2023/05/08 10:42:47;;;;;;;11.17;5.47;;;;;;;;;;5096253;28;20452;-70
2023/05/08 10:45:29;;;;;;;8.33;4.73;;;;;;;;;;5083916;28;20476;-70
2023/05/08 10:48:18;;;;;;;6.50;3.30;;;;;;;;;;5076632;28;20524;-71
2023/05/08 10:56:44;;;;;;;6.03;3.70;;;;;;;;;;5084051;28;20451;-69
2023/05/08 11:05:34;;;;;;;5.40;3.00;;;;;;;;;;5086087;28;20503;-71
2023/05/08 11:08:17;;;;;;;6.80;2.83;;;;;;;;;;5097744;28;20771;-70
2023/05/08 11:10:53;;;;;;;8.10;3.50;;;;;;;;;;5096345;28;20448;-73
2023/05/08 11:13:29;;;;;;;5.90;3.40;;;;;;;;;;5095285;28;20459;-71
2023/05/08 11:16:08;;;;;;;4.47;2.47;;;;;;;;;;5089874;28;20457;-70
2023/05/08 11:18:40;;;;;;;5.37;3.17;;;;;;;;;;5073425;28;20449;-71
2023/05/08 11:21:16;;;;;;;9.33;5.10;;;;;;;;;;5073859;28;20502;-70
2023/05/08 11:23:58;;;;;;;4.20;2.73;;;;;;;;;;5072499;28;20456;-75
2023/05/08 11:26:43;;;;;;;6.17;2.67;;;;;;;;;;5074798;28;20474;-72
2023/05/08 11:29:20;;;;;;;11.00;2.90;;;;;;;;;;5074960;28;20526;-70
2023/05/08 11:31:56;;;;;;;5.63;2.80;;;;;;;;;;5075936;28;20540;-71
2023/05/08 11:34:44;;;;;;;6.77;3.13;;;;;;;;;;5093680;28;20478;-71
2023/05/08 11:37:12;;;;;;;4.60;2.70;;;;;;;;;;5096674;28;20459;-71
2023/05/08 11:39:42;;;;;;;5.20;2.70;;;;;;;;;;5096232;28;20476;-72
2023/05/08 11:42:39;;;;;;;4.90;3.13;;;;;;;;;;5095555;28;20448;-72
2023/05/08 11:45:10;;;;;;;4.80;2.73;;;;;;;;;;5081243;28;20488;-71
2023/05/08 11:47:40;;;;;;;5.23;2.63;;;;;;;;;;5093118;28;20641;-71
2023/05/08 11:50:10;;;;;;;4.47;2.80;;;;;;;;;;5094122;28;20467;-71
2023/05/08 11:52:43;;;;;;;5.20;3.43;;;;;;;;;;5093563;28;20449;-71
2023/05/08 11:55:14;;;;;;;4.60;2.30;;;;;;;;;;5094825;28;20466;-71
2023/05/08 11:57:48;;;;;;;5.57;2.37;;;;;;;;;;5096713;28;20931;-73
2023/05/08 12:00:19;;;;;;;7.33;3.37;;;;;;;;;;5097307;28;20559;-71
2023/05/08 12:02:49;;;;;;;5.33;3.10;;;;;;;;;;5093189;28;20891;-71
2023/05/08 12:05:28;;;;;;;4.40;2.53;;;;;;;;;;5084399;28;20489;-71
2023/05/08 12:07:59;;;;;;;5.00;3.00;;;;;;;;;;5094265;28;20467;-71
2023/05/08 12:11:01;;;;;;;5.27;2.90;;;;;;;;;;5094754;28;20444;-70
2023/05/08 12:13:42;;;;;;;5.87;3.03;;;;;;;;;;5080485;28;20456;-71
2023/05/08 12:16:24;;;;;;;4.30;2.60;;;;;;;;;;5081367;28;20452;-70
2023/05/08 12:22:20;;;;;;;3.67;2.23;;;;;;;;;;5083401;28;20474;-72
2023/05/08 12:24:54;;;;;;;3.43;2.27;;;;;;;;;;5095721;28;20484;-72
2023/05/08 12:27:26;;;;;;;4.53;2.50;;;;;;;;;;5095588;28;20448;-70
2023/05/08 12:38:35;;;;;;;3.23;1.87;;;;;;;;;;5081897;28;20483;-71
2023/05/08 12:41:16;;;;;;;4.50;2.67;;;;;;;;;;5096104;28;20466;-70
2023/05/08 12:46:53;;;;;;;4.27;2.33;;;;;;;;;;5092182;28;20492;-70
2023/05/08 12:49:44;;;;;;;9.63;2.80;;;;;;;;;;5088133;28;20450;-72
2023/05/08 12:52:21;;;;;;;4.73;2.20;;;;;;;;;;5098632;28;20460;-71
2023/05/08 12:54:51;;;;;;;4.60;2.50;;;;;;;;;;5096404;28;20434;-70
2023/05/08 12:57:34;;;;;;;5.67;2.07;;;;;;;;;;5091823;28;20444;-71
2023/05/08 13:00:11;;;;;;;3.97;2.50;;;;;;;;;;5090075;28;20488;-73
2023/05/08 13:03:13;;;;;;;;;;;;;;;;;;;;;
2023/05/08 13:06:15;;;;;;;3.50;2.30;;;;;;;;;;5093418;28;20480;-72
2023/05/08 13:11:51;;;;;;;4.70;2.23;;;;;;;;;;5090929;28;20444;-71
2023/05/08 13:14:25;;;;;;;4.30;2.63;;;;;;;;;;5074776;28;20495;-71
2023/05/08 13:16:58;;;;;;;4.70;2.80;;;;;;;;;;5070360;28;21042;-72
2023/05/08 13:19:31;;;;;;;4.10;2.23;;;;;;;;;;5071316;28;20460;-72
2023/05/08 13:22:03;;;;;;;3.60;1.80;;;;;;;;;;5074407;28;20453;-73
2023/05/08 13:24:48;;;;;;;4.17;2.50;;;;;;;;;;5072579;28;20445;-73
2023/05/08 13:27:21;;;;;;;5.10;2.53;;;;;;;;;;5072706;28;20556;-73
2023/05/08 13:29:50;;;;;;;6.43;3.33;;;;;;;;;;5092245;28;21076;-74
2023/05/08 13:32:22;;;;;;;7.43;2.63;;;;;;;;;;5076114;28;20449;-72
2023/05/08 13:34:54;;;;;;;5.53;1.83;;;;;;;;;;5079540;28;20459;-72
2023/05/08 13:37:33;;;;;;;3.67;1.80;;;;;;;;;;5090505;28;20471;-73
2023/05/08 13:40:08;;;;;;;5.97;2.27;;;;;;;;;;5089411;28;20574;-71
2023/05/08 13:42:58;;;;;;;4.70;2.07;;;;;;;;;;5081273;28;20543;-72
2023/05/08 13:45:44;;;;;;;3.77;2.00;;;;;;;;;;5078276;28;20475;-73
2023/05/08 13:48:33;;;;;;;4.47;1.70;;;;;;;;;;5075316;28;20452;-72
2023/05/08 13:51:14;;;;;;;5.10;2.00;;;;;;;;;;5081131;28;21129;-72
2023/05/08 13:53:48;;;;;;;3.60;1.73;;;;;;;;;;5089594;28;21043;-72
2023/05/08 13:56:18;;;;;;;4.00;2.30;;;;;;;;;;5091795;28;20450;-72
2023/05/08 13:59:04;;;;;;;3.60;2.00;;;;;;;;;;5088254;28;20447;-72
2023/05/08 14:01:47;;;;;;;3.30;1.97;;;;;;;;;;5074954;28;20528;-71
2023/05/08 14:04:18;;;;;;;3.37;1.90;;;;;;;;;;5080806;28;20751;-72
2023/05/08 14:06:46;;;;;;;3.90;2.23;;;;;;;;;;5095057;28;20488;-73
2023/05/08 14:09:19;;;;;;;4.03;1.50;;;;;;;;;;5093451;28;21155;-72
2023/05/08 14:11:59;;;;;;;4.57;1.97;;;;;;;;;;5082889;28;20451;-71
2023/05/08 14:17:47;;;;;;;6.00;1.57;;;;;;;;;;5082200;28;20460;-72
2023/05/08 14:20:42;;;;;;;4.70;3.03;;;;;;;;;;5096427;28;20738;-71
2023/05/08 14:23:11;;;;;;;4.30;1.53;;;;;;;;;;5092236;28;20464;-71
2023/05/08 14:25:41;;;;;;;5.43;2.23;;;;;;;;;;5095158;28;20488;-71
2023/05/08 14:28:15;;;;;;;5.13;2.27;;;;;;;;;;5107803;28;20911;-71
2023/05/08 14:30:45;;;;;;;4.10;1.70;;;;;;;;;;5090705;28;20499;-71
2023/05/08 14:33:15;;;;;;;4.30;1.70;;;;;;;;;;5086282;28;20841;-72
2023/05/08 14:35:44;;;;;;;5.33;2.30;;;;;;;;;;5095951;28;20462;-71
2023/05/08 14:38:32;;;;;;;6.20;1.60;;;;;;;;;;5100453;28;20550;-72
2023/05/08 14:41:10;;;;;;;5.57;2.20;;;;;;;;;;5097601;28;20460;-71
2023/05/08 14:43:49;;;;;;;6.57;1.93;;;;;;;;;;5087662;28;20471;-72
2023/05/08 14:46:53;;;;;;;3.00;1.40;;;;;;;;;;5087920;28;20943;-71
2023/05/08 14:49:45;;;;;;;4.93;1.63;;;;;;;;;;5092547;28;20482;-73
2023/05/08 14:52:51;;;;;;;4.00;1.90;;;;;;;;;;5087752;28;20614;-71
2023/05/08 14:55:25;;;;;;;5.00;3.10;;;;;;;;;;5085873;28;20899;-71
2023/05/08 14:57:55;;;;;;;5.17;2.90;;;;;;;;;;5100604;28;20467;-72
2023/05/08 15:00:28;;;;;;;6.40;2.03;;;;;;;;;;5095415;28;20459;-72
2023/05/08 15:03:08;;;;;;;3.10;1.47;;;;;;;;;;5094561;28;20477;-70
2023/05/08 15:05:50;;;;;;;;;;;;;;;;;;;;;
2023/05/08 15:11:24;;;;;;;9.00;2.60;;;;;;;;;;5074114;28;20221;-71
2023/05/08 15:13:57;;;;;;;3.40;1.67;;;;;;;;;;5079221;28;20540;-71
2023/05/08 15:16:29;;;;;;;3.00;1.50;;;;;;;;;;5087872;28;20951;-71
2023/05/08 15:19:05;;;;;;;7.43;3.30;;;;;;;;;;5096003;28;20575;-71
2023/05/08 15:21:39;;;;;;;5.50;2.57;;;;;;;;;;5096461;28;20452;-73
2023/05/08 15:24:22;;;;;;;4.17;1.63;;;;;;;;;;5095274;28;20467;-71
2023/05/08 15:27:01;;;;;;;3.80;2.17;;;;;;;;;;5095424;28;20525;-72
2023/05/08 15:29:40;;;;;;;3.37;1.90;;;;;;;;;;5093543;28;20560;-71
2023/05/08 15:32:16;;;;;;;3.20;1.40;;;;;;;;;;5095220;28;20501;-72
2023/05/08 15:34:53;;;;;;;5.50;2.87;;;;;;;;;;5096046;28;20452;-71
2023/05/08 15:43:29;;;;;;;6.30;1.93;;;;;;;;;;5095825;28;20464;-71
2023/05/08 15:46:00;;;;;;;8.43;2.00;;;;;;;;;;5087137;28;20499;-72
2023/05/08 15:49:15;;;;;;;3.40;1.30;;;;;;;;;;5089815;28;20460;-71
2023/05/08 15:52:00;;;;;;;5.90;3.30;;;;;;;;;;5085988;28;20883;-72
2023/05/08 15:54:42;;;;;;;4.83;1.63;;;;;;;;;;5092396;28;20444;-73
2023/05/08 15:57:35;;;;;;;3.57;1.30;;;;;;;;;;5072608;28;20452;-71
2023/05/08 16:00:33;;;;;;;;;;;;;;;;;;;;;
2023/05/08 16:03:08;;;;;;;5.20;1.90;;;;;;;;;;5088770;28;20448;-73
2023/05/08 16:05:53;;;;;;;4.53;1.93;;;;;;;;;;5091548;28;20604;-73
2023/05/08 16:08:49;;;;;;;;;;;;;;;;;;;;;
2023/05/08 16:14:48;;;;;;;4.13;1.50;;;;;;;;;;5089838;28;20440;-72
2023/05/08 16:17:45;;;;;;;3.97;1.33;;;;;;;;;;5092948;28;20468;-72
2023/05/08 16:20:21;;;;;;;4.30;1.90;;;;;;;;;;5095883;28;20464;-73
2023/05/08 16:23:16;;;;;;;8.30;2.80;;;;;;;;;;5074310;28;20871;-71
2023/05/08 16:25:59;;;;;;;3.77;1.60;;;;;;;;;;5072361;28;20469;-73
2023/05/08 16:31:56;;;;;;;;;;;;;;;;;;;;;
2023/05/08 16:34:30;;;;;;;4.23;1.93;;;;;;;;;;5071689;28;20451;-72
2023/05/08 16:37:11;;;;;;;7.70;1.37;;;;;;;;;;5081553;28;20494;-73
2023/05/08 16:39:40;;;;;;;6.33;1.33;;;;;;;;;;5075802;28;20515;-71
2023/05/08 16:42:10;;;;;;;6.43;1.40;;;;;;;;;;5070842;28;20511;-71